createdAt,value
2023-03-04T00:02:28.629Z,35.00
2023-03-04T00:05:31.908Z,34.67
2023-03-04T00:08:35.244Z,36.50
2023-03-04T00:11:40.140Z,36.80
2023-03-04T00:14:43.574Z,35.00
2023-03-04T00:17:47.243Z,35.00
2023-03-04T00:20:50.810Z,35.20
2023-03-04T00:23:54.214Z,33.20
2023-03-04T00:26:58.868Z,35.00
2023-03-04T00:30:02.492Z,33.00
2023-03-04T00:33:06.284Z,33.50
2023-03-04T00:36:10.045Z,29.40
2023-03-04T00:39:13.619Z,32.40
2023-03-04T00:42:18.533Z,31.00
2023-03-04T00:45:21.801Z,33.00
2023-03-04T00:48:25.914Z,33.50
2023-03-04T00:51:29.241Z,30.20
2023-03-04T00:54:32.593Z,31.00
2023-03-04T00:57:37.265Z,30.40
2023-03-04T01:00:40.515Z,33.00
2023-03-04T01:03:43.900Z,30.00
2023-03-04T01:06:47.162Z,31.80
2023-03-04T01:09:50.411Z,30.00
2023-03-04T01:12:55.365Z,30.20
2023-03-04T01:15:58.835Z,32.00
2023-03-04T01:19:02.392Z,33.50
2023-03-04T01:22:06.654Z,32.00
2023-03-04T01:25:10.861Z,27.00
2023-03-04T01:28:15.546Z,30.00
2023-03-04T01:31:19.340Z,30.00
2023-03-04T01:34:22.614Z,28.60
2023-03-04T01:37:25.859Z,29.00
2023-03-04T01:40:29.215Z,29.00
2023-03-04T01:43:38.336Z,30.00
2023-03-04T01:46:44.780Z,29.75
2023-03-04T01:49:52.198Z,29.20
2023-03-04T01:52:55.663Z,29.60
2023-03-04T01:56:02.077Z,27.00
2023-03-04T01:59:12.592Z,27.40
2023-03-04T02:02:16.451Z,27.20
2023-03-04T02:05:20.422Z,29.40
2023-03-04T02:08:26.014Z,28.00
2023-03-04T02:11:29.379Z,26.75
2023-03-04T02:14:34.328Z,30.20
2023-03-04T02:17:38.718Z,24.60
2023-03-04T02:20:49.958Z,27.40
2023-03-04T02:24:04.912Z,28.20
2023-03-04T02:27:10.500Z,29.60
2023-03-04T02:30:22.924Z,30.00
2023-03-04T02:33:26.526Z,25.60
2023-03-04T02:36:30.269Z,27.20
2023-03-04T02:39:35.499Z,28.40
2023-03-04T02:42:40.403Z,30.00
2023-03-04T02:45:46.251Z,26.50
2023-03-04T02:48:50.256Z,24.20
2023-03-04T02:51:54.310Z,27.00
2023-03-04T02:54:57.579Z,26.00
2023-03-04T02:58:03.219Z,24.00
2023-03-04T03:01:07.185Z,25.20
2023-03-04T03:04:11.042Z,27.20
2023-03-04T03:07:14.579Z,23.40
2023-03-04T03:10:19.321Z,21.80
2023-03-04T03:13:24.890Z,27.00
2023-03-04T03:16:29.302Z,24.60
2023-03-04T03:19:32.696Z,25.00
2023-03-04T03:22:39.022Z,20.80
2023-03-04T03:25:42.311Z,27.00
2023-03-04T03:28:47.246Z,25.00
2023-03-04T03:31:50.601Z,26.00
2023-03-04T03:34:55.730Z,22.00
2023-03-04T03:38:02.266Z,18.00
2023-03-04T03:41:05.810Z,27.00
2023-03-04T03:44:10.530Z,27.25
2023-03-04T03:47:14.512Z,25.00
2023-03-04T03:50:18.181Z,25.60
2023-03-04T03:53:21.600Z,27.00
2023-03-04T03:56:24.888Z,26.67
2023-03-04T03:59:29.600Z,30.00
2023-03-04T04:02:32.905Z,26.25
2023-03-04T04:05:36.269Z,27.00
2023-03-04T04:08:40.032Z,32.00
2023-03-04T04:11:43.272Z,28.25
2023-03-04T04:14:47.982Z,28.20
2023-03-04T04:17:51.246Z,30.00
2023-03-04T04:20:54.938Z,29.75
2023-03-04T04:23:58.221Z,29.00
2023-03-04T04:27:01.592Z,30.00
2023-03-04T04:30:08.110Z,29.00
2023-03-04T04:33:12.014Z,32.80
2023-03-04T04:36:16.716Z,32.00
2023-03-04T04:39:20.495Z,33.00
2023-03-04T04:42:24.025Z,28.25
2023-03-04T04:45:28.725Z,30.00
2023-03-04T04:48:32.305Z,23.80
2023-03-04T04:51:36.993Z,25.00
2023-03-04T04:54:40.256Z,26.00
2023-03-04T04:57:43.973Z,33.00
2023-03-04T05:00:48.663Z,29.80
2023-03-04T05:03:53.789Z,32.00
2023-03-04T05:06:57.317Z,31.50
2023-03-04T05:10:00.713Z,32.00
2023-03-04T05:13:03.943Z,33.00
2023-03-04T05:16:10.081Z,32.00
2023-03-04T05:19:13.499Z,32.00
2023-03-04T05:22:16.826Z,33.40
2023-03-04T05:25:20.109Z,33.00
2023-03-04T05:28:23.422Z,32.00
2023-03-04T05:31:28.254Z,32.80
2023-03-04T05:34:31.523Z,31.00
2023-03-04T05:37:34.789Z,32.00
2023-03-04T05:40:38.212Z,31.25
2023-03-04T05:43:42.979Z,32.00
2023-03-04T05:46:47.741Z,32.00
2023-03-04T05:49:51.088Z,30.00
2023-03-04T05:52:54.610Z,31.60
2023-03-04T05:55:59.412Z,32.00
2023-03-04T05:59:02.681Z,32.00
2023-03-04T06:02:07.823Z,36.60
2023-03-04T06:05:12.792Z,32.67
2023-03-04T06:08:16.846Z,32.60
2023-03-04T06:11:20.356Z,31.60
2023-03-04T06:14:23.738Z,30.00
2023-03-04T06:17:28.492Z,31.50
2023-03-04T06:20:31.896Z,32.50
2023-03-04T06:23:35.101Z,32.00
2023-03-04T06:26:38.328Z,32.80
2023-03-04T06:29:41.597Z,33.00
2023-03-04T06:32:47.587Z,35.00
2023-03-04T06:35:55.473Z,32.20
2023-03-04T06:38:58.758Z,36.00
2023-03-04T06:42:02.184Z,35.80
2023-03-04T06:45:06.543Z,35.00
2023-03-04T06:48:11.334Z,35.25
2023-03-04T06:51:16.178Z,35.00
2023-03-04T06:54:20.183Z,37.00
2023-03-04T06:57:23.491Z,39.20
2023-03-04T07:00:26.960Z,38.60
2023-03-04T07:03:31.611Z,42.00
2023-03-04T07:06:34.919Z,40.00
2023-03-04T07:09:38.743Z,39.25
2023-03-04T07:12:42.034Z,39.00
2023-03-04T07:15:45.360Z,38.80
2023-03-04T07:18:50.549Z,38.80
2023-03-04T07:21:53.784Z,41.00
2023-03-04T07:24:57.161Z,39.00
2023-03-04T07:28:00.443Z,39.00
2023-03-04T07:31:10.705Z,41.20
2023-03-04T07:34:16.211Z,41.00
2023-03-04T07:37:19.456Z,39.60
2023-03-04T07:40:22.798Z,36.00
2023-03-04T07:43:26.173Z,40.60
2023-03-04T07:46:29.523Z,37.00
2023-03-04T07:49:35.603Z,40.80
2023-03-04T07:52:39.673Z,38.25
2023-03-04T07:55:42.905Z,36.00
2023-03-04T07:58:46.778Z,38.20
2023-03-04T08:01:50.152Z,37.50
2023-03-04T08:04:55.146Z,36.40
2023-03-04T08:07:58.523Z,35.20
2023-03-04T08:11:05.064Z,39.00
2023-03-04T08:14:09.349Z,38.40
2023-03-04T08:17:14.851Z,38.00
2023-03-04T08:20:19.643Z,38.80
2023-03-04T08:23:23.104Z,38.00
2023-03-04T08:26:30.004Z,40.60
2023-03-04T08:29:33.265Z,40.75
2023-03-04T08:32:36.601Z,40.75
2023-03-04T08:35:42.055Z,38.00
2023-03-04T08:38:45.492Z,40.00
2023-03-04T08:41:49.569Z,42.20
2023-03-04T08:44:52.859Z,38.00
2023-03-04T08:47:56.203Z,39.40
2023-03-04T08:51:01.293Z,38.00
2023-03-04T08:54:05.090Z,37.60
2023-03-04T08:57:08.367Z,39.00
2023-03-04T09:00:13.008Z,37.40
2023-03-04T09:03:17.924Z,38.00
2023-03-04T09:06:22.683Z,37.60
2023-03-04T09:09:26.730Z,37.00
2023-03-04T09:12:30.138Z,40.60
2023-03-04T09:15:35.686Z,37.00
2023-03-04T09:18:40.168Z,39.00
2023-03-04T09:21:44.985Z,36.80
2023-03-04T09:24:48.477Z,39.00
2023-03-04T09:27:51.796Z,35.40
2023-03-04T09:30:55.084Z,36.20
2023-03-04T09:34:00.085Z,36.40
2023-03-04T09:37:04.835Z,36.00
2023-03-04T09:40:09.901Z,34.20
2023-03-04T09:43:20.651Z,35.60
2023-03-04T09:46:33.540Z,39.00
2023-03-04T09:49:41.582Z,37.60
2023-03-04T09:53:02.399Z,39.00
2023-03-04T09:56:07.746Z,38.40
2023-03-04T09:59:25.273Z,40.00
2023-03-04T10:02:43.270Z,37.00
2023-03-04T10:05:55.463Z,36.00
2023-03-04T10:09:03.686Z,37.25
2023-03-04T10:12:13.344Z,40.67
2023-03-04T10:15:26.353Z,39.00
2023-03-04T10:18:36.863Z,37.00
2023-03-04T10:21:44.040Z,43.60
2023-03-04T10:24:49.445Z,38.80
2023-03-04T10:27:56.872Z,38.00
2023-03-04T10:31:05.911Z,38.00
2023-03-04T10:34:13.462Z,38.80
2023-03-04T10:37:16.727Z,39.60
2023-03-04T10:40:23.551Z,39.50
2023-03-04T10:43:26.850Z,39.00
2023-03-04T10:46:30.161Z,37.80
2023-03-04T10:49:33.463Z,39.50
2023-03-04T10:52:40.981Z,42.00
2023-03-04T10:55:46.514Z,37.40
2023-03-04T10:58:50.034Z,39.00
2023-03-04T11:01:55.707Z,37.40
2023-03-04T11:05:17.645Z,38.60
2023-03-04T11:08:24.359Z,38.00
2023-03-04T11:11:34.835Z,37.80
2023-03-04T11:14:43.344Z,38.00
2023-03-04T11:17:51.018Z,40.00
2023-03-04T11:20:56.452Z,40.00
2023-03-04T11:24:02.731Z,40.00
2023-03-04T11:27:15.140Z,37.80
2023-03-04T11:30:30.373Z,38.00
2023-03-04T11:33:43.173Z,40.00
2023-03-04T11:36:57.235Z,41.00
2023-03-04T11:40:05.754Z,35.25
2023-03-04T11:43:17.886Z,38.25
2023-03-04T11:46:59.076Z,36.00
2023-03-04T11:50:27.719Z,39.00
2023-03-04T11:53:38.046Z,39.00
2023-03-04T11:56:45.903Z,37.60
2023-03-04T12:00:10.265Z,37.40
2023-03-04T12:03:37.886Z,33.20
2023-03-04T12:06:52.195Z,35.00
2023-03-04T12:10:05.822Z,31.80
2023-03-04T12:13:34.876Z,35.00
2023-03-04T12:17:01.517Z,35.60
2023-03-04T12:20:22.104Z,35.00
2023-03-04T12:23:42.131Z,32.00
2023-03-04T12:26:53.192Z,33.00
2023-03-04T12:30:01.703Z,30.75
2023-03-04T12:33:17.246Z,35.00
2023-03-04T12:36:31.458Z,33.25
2023-03-04T12:39:40.878Z,32.33
2023-03-04T12:43:00.265Z,35.00
2023-03-04T12:46:19.159Z,34.00
2023-03-04T12:49:42.043Z,32.00
2023-03-04T12:52:52.838Z,32.60
2023-03-04T12:55:58.421Z,34.00
2023-03-04T12:59:02.687Z,30.60
2023-03-04T13:02:28.515Z,32.00
2023-03-04T13:05:49.563Z,38.00
2023-03-04T13:09:02.668Z,33.00
2023-03-04T13:12:16.732Z,29.75
2023-03-04T13:15:32.874Z,31.25
2023-03-04T13:18:39.529Z,32.80
2023-03-04T13:21:52.948Z,33.00
2023-03-04T13:24:57.815Z,32.00
2023-03-04T13:28:24.107Z,32.00
2023-03-04T13:31:28.226Z,30.00
2023-03-04T13:34:47.316Z,29.50
2023-03-04T13:38:03.491Z,30.00
2023-03-04T13:41:13.354Z,27.00
2023-03-04T13:44:49.010Z,31.40
2023-03-04T13:47:52.324Z,30.40
2023-03-04T13:50:55.805Z,30.67
2023-03-04T13:54:15.850Z,28.80
2023-03-04T13:57:22.154Z,25.40
2023-03-04T14:00:26.639Z,30.75
2023-03-04T14:03:32.452Z,28.50
2023-03-04T14:06:35.723Z,24.75
2023-03-04T14:09:40.552Z,25.20
2023-03-04T14:12:47.559Z,30.00
2023-03-04T14:15:57.823Z,25.50
2023-03-04T14:19:03.590Z,30.00
2023-03-04T14:22:23.305Z,28.00
2023-03-04T14:25:29.766Z,30.40
2023-03-04T14:28:33.025Z,29.60
2023-03-04T14:31:37.303Z,30.00
2023-03-04T14:34:40.933Z,30.00
2023-03-04T14:37:48.527Z,29.60
2023-03-04T14:40:57.094Z,27.80
2023-03-04T14:44:07.949Z,28.50
2023-03-04T14:47:18.605Z,28.25
2023-03-04T14:50:22.377Z,25.00
2023-03-04T14:53:27.353Z,27.00
2023-03-04T14:56:33.770Z,28.75
2023-03-04T14:59:37.334Z,27.75
2023-03-04T15:02:40.976Z,29.60
2023-03-04T15:05:44.608Z,28.00
2023-03-04T15:08:56.393Z,28.40
2023-03-04T15:12:03.861Z,24.50
2023-03-04T15:15:41.815Z,29.00
2023-03-04T15:18:56.041Z,27.50
2023-03-04T15:22:07.385Z,23.00
2023-03-04T15:25:15.378Z,27.40
2023-03-04T15:28:20.472Z,26.00
2023-03-04T15:31:26.007Z,30.75
2023-03-04T15:34:29.247Z,30.00
2023-03-04T15:37:32.604Z,28.00
2023-03-04T15:40:39.127Z,28.60
2023-03-04T15:43:44.225Z,27.00
2023-03-04T15:46:47.495Z,29.40
2023-03-04T15:49:51.865Z,24.75
2023-03-04T15:52:58.796Z,28.00
2023-03-04T15:56:03.516Z,27.00
2023-03-04T15:59:13.344Z,26.00
2023-03-04T16:02:21.037Z,26.00
2023-03-04T16:05:25.732Z,25.75
2023-03-04T16:08:29.625Z,26.40
2023-03-04T16:11:40.048Z,25.00
2023-03-04T16:14:46.978Z,26.60
2023-03-04T16:17:50.484Z,27.60
2023-03-04T16:20:53.977Z,26.00
2023-03-04T16:23:57.471Z,28.50
2023-03-04T16:27:00.791Z,20.20
2023-03-04T16:30:07.089Z,25.00
2023-03-04T16:33:11.950Z,25.00
2023-03-04T16:36:18.754Z,26.00
2023-03-04T16:39:25.960Z,27.25
2023-03-04T16:42:29.257Z,22.50
2023-03-04T16:45:36.189Z,24.40
2023-03-04T16:48:40.836Z,27.00
2023-03-04T16:51:47.582Z,27.20
2023-03-04T16:54:51.063Z,26.00
2023-03-04T16:57:55.048Z,27.40
2023-03-04T17:00:59.770Z,26.60
2023-03-04T17:04:02.972Z,27.20
2023-03-04T17:07:06.311Z,28.00
2023-03-04T17:10:10.979Z,27.00
2023-03-04T17:13:14.333Z,23.60
2023-03-04T17:16:19.144Z,20.80
2023-03-04T17:19:22.934Z,25.75
2023-03-04T17:22:26.435Z,24.00
2023-03-04T17:25:29.849Z,25.60
2023-03-04T17:28:34.515Z,23.00
2023-03-04T17:31:39.286Z,22.60
2023-03-04T17:34:42.782Z,27.00
2023-03-04T17:37:46.077Z,27.00
2023-03-04T17:40:49.294Z,25.00
2023-03-04T17:43:54.661Z,27.00
2023-03-04T17:46:59.597Z,24.40
2023-03-04T17:50:03.044Z,22.40
2023-03-04T17:53:06.291Z,25.00
2023-03-04T17:56:12.004Z,28.60
2023-03-04T17:59:16.888Z,26.40
2023-03-04T18:02:21.554Z,28.00
2023-03-04T18:05:24.958Z,23.60
2023-03-04T18:08:28.253Z,24.00
2023-03-04T18:11:31.937Z,26.50
2023-03-04T18:14:35.468Z,26.00
2023-03-04T18:17:42.459Z,27.25
2023-03-04T18:20:45.970Z,25.00
2023-03-04T18:23:49.603Z,24.00
2023-03-04T18:26:52.816Z,27.75
2023-03-04T18:29:57.909Z,20.20
2023-03-04T18:33:02.899Z,28.00
2023-03-04T18:36:08.642Z,27.00
2023-03-04T18:39:12.063Z,29.40
2023-03-04T18:42:15.526Z,26.00
2023-03-04T18:45:19.238Z,30.00
2023-03-04T18:48:23.906Z,25.40
2023-03-04T18:51:27.414Z,26.60
2023-03-04T18:54:30.707Z,26.00
2023-03-04T18:57:34.144Z,29.00
2023-03-04T19:00:37.422Z,28.00
2023-03-04T19:03:43.108Z,26.00
2023-03-04T19:06:46.588Z,26.60
2023-03-04T19:09:49.906Z,27.75
2023-03-04T19:12:53.315Z,24.60
2023-03-04T19:15:56.627Z,30.00
2023-03-04T19:19:01.329Z,30.60
2023-03-04T19:22:04.987Z,28.40
2023-03-04T19:25:09.967Z,32.00
2023-03-04T19:28:13.533Z,30.40
2023-03-04T19:31:16.866Z,26.60
2023-03-04T19:34:21.706Z,29.50
2023-03-04T19:37:25.086Z,30.00
2023-03-04T19:40:29.158Z,30.00
2023-03-04T19:43:37.197Z,30.00
2023-03-04T19:46:41.698Z,29.00
2023-03-04T19:49:49.902Z,27.60
2023-03-04T19:52:53.576Z,29.00
2023-03-04T19:55:56.864Z,29.80
2023-03-04T19:59:00.180Z,23.00
2023-03-04T20:02:03.770Z,31.00
2023-03-04T20:05:09.522Z,30.00
2023-03-04T20:08:12.794Z,25.60
2023-03-04T20:11:16.031Z,30.00
2023-03-04T20:14:19.379Z,30.00
2023-03-04T20:17:22.674Z,30.00
2023-03-04T20:20:29.315Z,29.00
2023-03-04T20:23:32.929Z,29.00
2023-03-04T20:26:39.767Z,29.00
2023-03-04T20:29:44.391Z,29.40
2023-03-04T20:32:48.892Z,27.40
2023-03-04T20:35:53.600Z,29.40
2023-03-04T20:39:02.496Z,28.60
2023-03-04T20:42:07.778Z,30.40
2023-03-04T20:45:12.029Z,30.80
2023-03-04T20:48:15.319Z,30.50
2023-03-04T20:51:20.185Z,31.25
2023-03-04T20:54:24.396Z,30.00
2023-03-04T20:57:29.294Z,30.40
2023-03-04T21:00:32.623Z,31.00
2023-03-04T21:03:35.912Z,32.00
2023-03-04T21:06:40.855Z,32.00
2023-03-04T21:09:45.186Z,32.00
2023-03-04T21:12:49.054Z,26.75
2023-03-04T21:15:53.048Z,24.80
2023-03-04T21:18:57.162Z,21.40
2023-03-04T21:22:02.918Z,26.40
2023-03-04T21:25:07.530Z,23.00
2023-03-04T21:28:10.918Z,24.60
2023-03-04T21:31:18.066Z,30.00
2023-03-04T21:34:24.058Z,32.00
2023-03-04T21:37:28.868Z,24.00
2023-03-04T21:40:32.118Z,24.00
2023-03-04T21:43:35.413Z,22.00
2023-03-04T21:46:38.912Z,26.50
2023-03-04T21:49:42.267Z,25.00
2023-03-04T21:52:47.028Z,16.00
2023-03-04T21:55:53.212Z,15.00
2023-03-04T21:58:59.890Z,8.75
2023-03-04T22:02:03.477Z,6.00
2023-03-04T22:05:07.206Z,9.00
2023-03-04T22:08:12.256Z,10.40
2023-03-04T22:11:15.599Z,10.00
2023-03-04T22:14:18.915Z,10.60
2023-03-04T22:17:22.381Z,15.60
2023-03-04T22:20:25.795Z,8.80
2023-03-04T22:23:31.289Z,9.00
2023-03-04T22:26:34.537Z,10.40
2023-03-04T22:29:37.836Z,12.60
2023-03-04T22:32:41.201Z,11.60
2023-03-04T22:35:44.633Z,15.60
2023-03-04T22:38:49.416Z,10.40
2023-03-04T22:41:53.009Z,10.40
2023-03-04T22:44:56.383Z,10.00
2023-03-04T22:48:00.576Z,5.00
2023-03-04T22:51:06.643Z,8.00
2023-03-04T22:54:12.889Z,8.00
2023-03-04T22:57:16.406Z,8.60
2023-03-04T23:00:22.966Z,5.40
2023-03-04T23:03:26.417Z,7.25
2023-03-04T23:06:31.671Z,10.00
2023-03-04T23:09:36.355Z,7.60
2023-03-04T23:12:39.729Z,10.00
2023-03-04T23:15:42.976Z,11.00
2023-03-04T23:18:47.450Z,10.00
2023-03-04T23:21:50.804Z,9.00
2023-03-04T23:24:57.702Z,9.00
2023-03-04T23:28:01.217Z,11.40
2023-03-04T23:31:06.089Z,9.00
2023-03-04T23:34:09.515Z,7.00
2023-03-04T23:37:12.798Z,11.00
2023-03-04T23:40:18.081Z,12.00
2023-03-04T23:43:21.408Z,14.00
2023-03-04T23:46:25.049Z,12.75
2023-03-04T23:49:28.353Z,9.60
2023-03-04T23:52:31.712Z,9.40
2023-03-04T23:55:36.408Z,10.33
2023-03-04T23:58:40.922Z,8.00
